Time;durP1;ratioP1;P1;durP2;ratioP2;P2;SDS_P1;SDS_P2;PMS_P1;PMS_P2;Temp;Humidity;BMP_temperature;BMP_pressure;BME280_temperature;BME280_humidity;BME280_pressure;Samples;Min_cycle;Max_cycle;Signal;HPM_P1;HPM_P2
2021/09/18 00:00:30;;;;;;;5.22;3.53;;;;;;;13.11;70.89;96662.31;6254538;23;20020;-81
2021/09/18 00:02:59;;;;;;;5.20;3.85;;;;;;;13.09;70.79;96656.47;6253969;23;20035;-81
2021/09/18 00:05:27;;;;;;;5.00;3.40;;;;;;;13.04;71.06;96664.13;6252976;23;20047;-81
2021/09/18 00:07:56;;;;;;;4.85;4.03;;;;;;;13.00;70.77;96668.94;6254236;23;20360;-81
2021/09/18 00:10:25;;;;;;;6.30;3.55;;;;;;;12.95;71.00;96663.47;6253560;23;20107;-82
2021/09/18 00:12:53;;;;;;;4.35;3.67;;;;;;;12.92;71.04;96671.69;6254441;23;20447;-81
2021/09/18 00:15:21;;;;;;;4.40;3.72;;;;;;;12.88;71.13;96665.22;6257009;23;20515;-81
2021/09/18 00:17:50;;;;;;;5.88;3.78;;;;;;;12.85;71.34;96665.63;6255513;23;20098;-81
2021/09/18 00:20:18;;;;;;;6.75;4.05;;;;;;;12.84;71.31;96669.28;6255919;23;20068;-81
2021/09/18 00:22:46;;;;;;;4.25;3.83;;;;;;;12.81;71.34;96659.97;6256842;23;20040;-81
2021/09/18 00:25:14;;;;;;;4.18;3.75;;;;;;;12.81;71.89;96659.16;6256707;23;20040;-81
2021/09/18 00:27:42;;;;;;;4.90;4.50;;;;;;;12.79;71.52;96664.63;6254867;23;20028;-81
2021/09/18 00:30:11;;;;;;;5.80;3.72;;;;;;;12.76;71.51;96660.56;6254689;23;20012;-81
2021/09/18 00:32:39;;;;;;;4.70;3.72;;;;;;;12.76;71.62;96663.16;6254307;23;20021;-81
2021/09/18 00:35:09;;;;;;;3.90;3.50;;;;;;;12.77;71.82;96659.56;6255213;23;20076;-81
2021/09/18 00:37:38;;;;;;;13.90;4.22;;;;;;;12.83;71.53;96663.19;6257429;23;20016;-81
2021/09/18 00:40:07;;;;;;;4.25;3.85;;;;;;;12.80;71.20;96657.56;6257432;23;20103;-81
2021/09/18 00:42:35;;;;;;;4.72;4.10;;;;;;;12.76;71.29;96657.94;6253502;23;20013;-81
2021/09/18 00:45:04;;;;;;;13.77;4.15;;;;;;;12.75;71.55;96661.56;6254582;23;20020;-81
2021/09/18 00:47:32;;;;;;;5.30;4.00;;;;;;;12.73;71.37;96662.78;6260566;23;20036;-81
2021/09/18 00:50:01;;;;;;;5.78;4.13;;;;;;;12.70;71.55;96658.72;6254317;23;20027;-81
2021/09/18 00:52:30;;;;;;;5.53;4.15;;;;;;;12.67;71.62;96653.88;6254284;23;20098;-81
2021/09/18 00:54:59;;;;;;;5.40;4.82;;;;;;;12.68;71.63;96655.50;6253576;23;20021;-81
2021/09/18 00:57:29;;;;;;;5.15;4.47;;;;;;;12.65;71.58;96661.09;6252147;23;20018;-81
2021/09/18 01:00:02;;;;;;;4.70;4.22;;;;;;;12.61;71.56;96656.44;6258382;23;20016;-81
2021/09/18 01:02:30;;;;;;;5.57;4.43;;;;;;;12.60;71.87;96660.09;6256900;23;20099;-81
2021/09/18 01:04:58;;;;;;;5.13;4.32;;;;;;;12.59;72.01;96659.25;6255990;23;20356;-80
2021/09/18 01:07:27;;;;;;;5.72;4.43;;;;;;;12.58;71.66;96661.06;6255347;23;20016;-81
2021/09/18 01:09:57;;;;;;;10.95;6.38;;;;;;;12.57;71.91;96662.09;6253215;23;20016;-82
2021/09/18 01:12:25;;;;;;;5.40;4.85;;;;;;;12.58;71.96;96661.06;6252233;23;20020;-81
2021/09/18 01:14:53;;;;;;;8.20;5.18;;;;;;;12.57;71.77;96664.69;6252491;23;20020;-81
2021/09/18 01:17:21;;;;;;;6.65;4.75;;;;;;;12.56;72.03;96662.25;6251524;23;20403;-81
2021/09/18 01:19:48;;;;;;;5.13;4.20;;;;;;;12.57;72.22;96658.63;6251664;23;20043;-81
2021/09/18 01:22:19;;;;;;;5.22;4.50;;;;;;;12.55;71.93;96656.22;6250530;23;20066;-81
2021/09/18 01:24:49;;;;;;;4.20;3.80;;;;;;;12.55;71.75;96663.25;6251240;23;20415;-81
2021/09/18 01:27:17;;;;;;;5.82;4.63;;;;;;;12.54;71.69;96653.78;6251061;23;20020;-81
2021/09/18 01:29:45;;;;;;;5.63;3.97;;;;;;;12.52;71.75;96658.41;6257295;23;20095;-81
2021/09/18 01:32:17;;;;;;;6.85;4.00;;;;;;;12.51;71.83;96654.19;6254208;23;20024;-81
2021/09/18 01:34:45;;;;;;;4.85;4.35;;;;;;;12.48;71.71;96657.19;6249058;23;20020;-81
2021/09/18 01:37:13;;;;;;;3.97;3.58;;;;;;;12.47;71.88;96652.97;6250151;23;20368;-81
2021/09/18 01:39:40;;;;;;;5.43;3.88;;;;;;;12.45;71.78;96657.56;6250348;23;20020;-81
2021/09/18 01:42:10;;;;;;;6.07;4.22;;;;;;;12.42;71.91;96655.31;6250054;23;20020;-81
2021/09/18 01:44:37;;;;;;;4.38;3.80;;;;;;;12.38;71.83;96651.50;6250054;23;20016;-81
2021/09/18 01:47:05;;;;;;;5.30;4.80;;;;;;;12.34;71.98;96653.69;6249760;23;20058;-81
2021/09/18 01:49:33;;;;;;;4.85;4.35;;;;;;;12.29;72.12;96654.25;6249585;23;20040;-81
2021/09/18 01:52:06;;;;;;;6.95;4.07;;;;;;;12.27;72.18;96652.84;6250561;23;20399;-81
2021/09/18 01:54:37;;;;;;;5.72;4.75;;;;;;;12.24;72.09;96646.16;6251062;23;20024;-81
2021/09/18 01:57:07;;;;;;;5.65;4.57;;;;;;;12.21;72.41;96649.16;6249683;23;20051;-81
2021/09/18 01:59:36;;;;;;;5.30;4.70;;;;;;;12.16;72.42;96648.94;6249110;23;20020;-81
2021/09/18 02:02:04;;;;;;;5.30;4.65;;;;;;;12.13;72.34;96636.22;6248200;23;20090;-81
2021/09/18 02:04:32;;;;;;;6.20;4.40;;;;;;;12.09;72.37;96638.44;6248682;23;20048;-81
2021/09/18 02:07:00;;;;;;;5.50;4.75;;;;;;;12.12;72.76;96642.47;6248064;23;20078;-81
2021/09/18 02:09:27;;;;;;;5.20;4.22;;;;;;;12.15;72.28;96649.91;6249178;23;20396;-81
2021/09/18 02:11:55;;;;;;;6.05;4.95;;;;;;;12.14;72.67;96636.03;6250580;23;20051;-81
2021/09/18 02:14:23;;;;;;;6.53;4.93;;;;;;;12.18;72.84;96636.47;6250853;23;20024;-81
2021/09/18 02:16:52;;;;;;;5.07;4.57;;;;;;;12.27;72.75;96631.91;6250314;23;20034;-81
2021/09/18 02:19:20;;;;;;;6.70;5.10;;;;;;;12.27;72.07;96634.53;6249824;23;20020;-81
2021/09/18 02:21:47;;;;;;;5.50;4.75;;;;;;;12.25;72.23;96629.47;6247079;23;20022;-80
2021/09/18 02:24:16;;;;;;;5.40;4.90;;;;;;;12.27;72.18;96632.72;6247305;23;20016;-81
2021/09/18 02:26:44;;;;;;;5.32;4.40;;;;;;;12.28;72.11;96629.09;6250668;23;20016;-81
2021/09/18 02:29:12;;;;;;;6.93;5.30;;;;;;;12.27;72.01;96632.72;6248404;23;20012;-80
2021/09/18 02:31:39;;;;;;;6.03;5.43;;;;;;;12.22;72.08;96629.03;6247253;23;20098;-81
2021/09/18 02:34:08;;;;;;;5.38;4.88;;;;;;;12.17;72.16;96632.22;6249664;23;20020;-81
2021/09/18 02:36:36;;;;;;;6.22;5.30;;;;;;;12.15;72.45;96629.78;6249105;23;20456;-80
2021/09/18 02:39:04;;;;;;;4.75;4.25;;;;;;;12.12;72.29;96624.97;6270789;22;20465;-80
2021/09/18 02:41:31;;;;;;;5.05;4.55;;;;;;;12.13;72.54;96626.59;6273769;22;20008;-81
2021/09/18 02:43:59;;;;;;;5.63;4.57;;;;;;;12.13;72.36;96634.44;6259860;23;20367;-81
2021/09/18 02:46:27;;;;;;;5.15;3.85;;;;;;;12.17;72.55;96637.47;6248283;23;20020;-81
2021/09/18 02:48:55;;;;;;;9.35;4.65;;;;;;;12.22;72.70;96634.28;6247097;23;20036;-81
2021/09/18 02:51:25;;;;;;;4.97;4.55;;;;;;;12.22;72.45;96642.13;6268773;23;20016;-79
2021/09/18 02:53:53;;;;;;;7.70;4.72;;;;;;;12.22;72.17;96631.66;6262953;23;20020;-81
2021/09/18 02:56:21;;;;;;;4.40;3.50;;;;;;;12.27;73.15;96635.31;6248072;23;20082;-81
2021/09/18 02:58:49;;;;;;;4.57;3.70;;;;;;;12.38;73.05;96627.97;6247963;23;20016;-81
2021/09/18 03:01:16;;;;;;;5.05;3.97;;;;;;;12.47;72.47;96626.78;6250862;23;20043;-81
2021/09/18 03:03:45;;;;;;;4.05;3.70;;;;;;;12.53;72.01;96623.41;6248607;23;20020;-81
2021/09/18 03:06:13;;;;;;;6.82;4.68;;;;;;;12.58;72.26;96621.00;6248663;23;20016;-81
2021/09/18 03:08:42;;;;;;;6.20;5.10;;;;;;;12.54;71.46;96617.16;6247443;23;20031;-81
2021/09/18 03:11:11;;;;;;;6.13;5.53;;;;;;;12.46;71.54;96609.47;6248524;23;20040;-81
2021/09/18 03:13:39;;;;;;;6.15;5.55;;;;;;;12.39;71.57;96611.25;6246840;23;20419;-81
2021/09/18 03:16:07;;;;;;;7.18;5.93;;;;;;;12.30;71.82;96611.41;6247527;23;20020;-81
2021/09/18 03:18:36;;;;;;;6.75;5.80;;;;;;;12.21;72.03;96609.13;6248015;23;20024;-81
2021/09/18 03:21:03;;;;;;;6.05;5.28;;;;;;;12.15;72.02;96611.50;6247191;23;20504;-81
2021/09/18 03:23:31;;;;;;;6.97;6.28;;;;;;;12.11;72.39;96607.66;6247376;23;20016;-81
2021/09/18 03:26:00;;;;;;;6.82;5.93;;;;;;;12.09;72.56;96611.44;6247873;23;20100;-81
2021/09/18 03:28:28;;;;;;;6.38;4.80;;;;;;;12.07;72.58;96611.66;6247635;23;20019;-81
2021/09/18 03:30:56;;;;;;;5.57;4.97;;;;;;;12.09;72.64;96608.84;6247805;23;20016;-81
2021/09/18 03:33:23;;;;;;;7.65;5.30;;;;;;;12.12;72.23;96605.84;6247583;23;20021;-80
2021/09/18 03:35:51;;;;;;;5.95;4.95;;;;;;;12.16;73.04;96602.66;6251933;23;20047;-81
2021/09/18 03:38:19;;;;;;;6.03;4.63;;;;;;;12.25;72.75;96611.16;6264454;23;20016;-81
2021/09/18 03:40:47;;;;;;;5.65;5.00;;;;;;;12.31;72.41;96614.81;6265522;23;20050;-80
2021/09/18 03:43:16;;;;;;;5.97;4.78;;;;;;;12.29;72.30;96620.25;6265007;23;20415;-81
2021/09/18 03:45:44;;;;;;;7.47;4.40;;;;;;;12.32;73.01;96619.84;6250137;23;20031;-81
2021/09/18 03:48:12;;;;;;;6.88;4.60;;;;;;;12.37;72.10;96616.66;6247360;23;20020;-81
2021/09/18 03:50:40;;;;;;;6.70;5.97;;;;;;;12.33;71.70;96621.50;6266282;23;20043;-81
2021/09/18 03:53:07;;;;;;;6.22;5.53;;;;;;;12.28;71.74;96618.63;6266483;23;20016;-81
2021/09/18 03:55:35;;;;;;;5.25;4.78;;;;;;;12.24;72.21;96622.63;6261919;23;20031;-81
2021/09/18 03:58:03;;;;;;;4.78;4.13;;;;;;;12.29;72.91;96625.47;6247694;23;20016;-81
2021/09/18 04:00:33;;;;;;;6.25;4.47;;;;;;;12.30;72.27;96624.47;6249140;23;20416;-81
2021/09/18 04:03:00;;;;;;;5.32;4.43;;;;;;;12.30;71.85;96624.47;6250767;23;20015;-81
2021/09/18 04:05:28;;;;;;;7.75;6.05;;;;;;;12.25;71.45;96634.72;6246625;23;20017;-81
2021/09/18 04:07:56;;;;;;;5.53;4.95;;;;;;;12.14;71.82;96622.97;6246123;23;20095;-80
2021/09/18 04:10:24;;;;;;;7.90;5.50;;;;;;;12.08;72.01;96630.75;6245153;23;20392;-81
2021/09/18 04:12:51;;;;;;;6.05;5.43;;;;;;;12.04;71.87;96626.91;6245586;23;20471;-80
2021/09/18 04:15:19;;;;;;;5.38;4.35;;;;;;;12.01;72.42;96629.91;6246789;23;20409;-81
2021/09/18 04:17:48;;;;;;;9.93;5.82;;;;;;;12.01;72.00;96633.34;6246185;23;20028;-80
2021/09/18 04:20:16;;;;;;;6.75;5.75;;;;;;;11.98;72.18;96628.47;6245005;23;20016;-81
2021/09/18 04:22:44;;;;;;;5.85;4.45;;;;;;;11.98;72.60;96633.69;6245575;23;20012;-81
2021/09/18 04:25:11;;;;;;;6.60;5.45;;;;;;;11.99;72.09;96629.28;6246377;23;20020;-80
2021/09/18 04:27:40;;;;;;;6.38;5.47;;;;;;;11.98;72.19;96632.91;6247265;23;20041;-81
2021/09/18 04:30:08;;;;;;;6.15;5.55;;;;;;;11.95;72.18;96634.88;6248165;23;20091;-80
2021/09/18 04:32:36;;;;;;;6.40;5.68;;;;;;;11.93;72.27;96636.88;6248702;23;20374;-81
2021/09/18 04:35:07;;;;;;;6.78;6.07;;;;;;;11.91;72.34;96638.88;6247668;23;20091;-80
2021/09/18 04:37:34;;;;;;;6.93;5.75;;;;;;;11.91;72.17;96640.69;6248752;23;20095;-80
2021/09/18 04:40:02;;;;;;;6.75;5.70;;;;;;;11.88;72.43;96639.25;6247091;23;20103;-81
2021/09/18 04:42:29;;;;;;;7.35;5.38;;;;;;;11.89;72.26;96640.88;6246786;23;20031;-80
2021/09/18 04:44:57;;;;;;;6.03;5.43;;;;;;;11.89;71.96;96640.88;6247456;23;20026;-81
2021/09/18 04:47:24;;;;;;;8.73;5.70;;;;;;;11.89;71.95;96640.88;6248834;23;20016;-81
2021/09/18 04:49:52;;;;;;;7.70;5.78;;;;;;;11.87;72.06;96640.25;6248636;23;20460;-81
2021/09/18 04:52:21;;;;;;;8.15;5.80;;;;;;;11.84;71.71;96645.81;6248554;23;20085;-81
2021/09/18 04:54:49;;;;;;;6.28;4.40;;;;;;;11.87;72.76;96647.25;6247460;23;20107;-81
2021/09/18 04:57:17;;;;;;;4.90;4.22;;;;;;;11.98;72.96;96645.97;6247329;23;20091;-80
2021/09/18 04:59:44;;;;;;;4.95;4.43;;;;;;;12.09;72.41;96646.28;6246616;23;20016;-81
2021/09/18 05:02:12;;;;;;;6.38;5.00;;;;;;;12.19;72.38;96647.75;6246976;23;20106;-81
2021/09/18 05:04:40;;;;;;;5.75;4.95;;;;;;;12.27;72.08;96656.25;6248265;23;20043;-83
2021/09/18 05:07:07;;;;;;;8.10;5.40;;;;;;;12.28;70.97;96665.69;6247493;23;20526;-80
2021/09/18 05:09:37;;;;;;;5.72;4.15;;;;;;;12.27;71.67;96666.72;6256309;23;20073;-80
2021/09/18 05:12:06;;;;;;;5.30;4.30;;;;;;;12.30;71.40;96666.31;6258277;23;20456;-80
2021/09/18 05:14:33;;;;;;;9.40;4.65;;;;;;;12.31;70.43;96670.56;6251156;23;20020;-80
2021/09/18 05:17:03;;;;;;;5.72;4.75;;;;;;;12.29;70.38;96672.56;6250090;23;20071;-80
2021/09/18 05:19:55;;;;;;;5.40;4.55;;;;;;;12.23;70.17;96673.31;6249528;23;20016;-80
2021/09/18 05:22:23;;;;;;;8.73;4.50;;;;;;;12.17;70.03;96671.47;6251349;23;20031;-79
2021/09/18 05:24:52;;;;;;;4.53;4.13;;;;;;;12.19;70.75;96671.28;6243419;23;20099;-80
2021/09/18 05:27:20;;;;;;;4.50;3.90;;;;;;;12.21;70.58;96669.28;6245771;23;20024;-79
2021/09/18 05:29:47;;;;;;;4.72;3.88;;;;;;;12.22;70.37;96671.69;6245280;23;20359;-80
2021/09/18 05:32:15;;;;;;;5.10;4.53;;;;;;;12.15;69.76;96670.84;6245139;23;20024;-80
2021/09/18 05:34:42;;;;;;;5.75;5.15;;;;;;;12.08;69.73;96667.38;6245306;23;20020;-79
2021/09/18 05:37:10;;;;;;;6.00;5.32;;;;;;;12.03;70.32;96669.75;6245754;23;20090;-79
2021/09/18 05:39:38;;;;;;;4.60;4.20;;;;;;;12.00;71.00;96672.72;6244999;23;20020;-79
2021/09/18 05:42:10;;;;;;;5.85;5.00;;;;;;;12.00;70.50;96672.72;6256854;22;20562;-78
2021/09/18 05:44:38;;;;;;;4.90;4.15;;;;;;;11.95;70.84;96673.28;6272917;22;20034;-79
2021/09/18 05:47:06;;;;;;;5.22;4.40;;;;;;;11.95;71.38;96676.72;6272274;22;20016;-77
2021/09/18 05:49:33;;;;;;;5.10;4.32;;;;;;;11.94;71.24;96675.09;6271397;23;20020;-79
2021/09/18 05:52:01;;;;;;;5.43;4.50;;;;;;;11.90;70.92;96684.31;6270391;22;20012;-79
2021/09/18 05:54:29;;;;;;;6.18;4.70;;;;;;;11.85;70.97;96668.38;6253494;23;20452;-80
2021/09/18 05:56:57;;;;;;;7.70;5.43;;;;;;;11.83;70.98;96672.97;6248255;23;20024;-81
2021/09/18 05:59:26;;;;;;;7.45;5.60;;;;;;;11.78;71.48;96672.72;6247078;23;20064;-80
2021/09/18 06:01:53;;;;;;;7.30;5.88;;;;;;;11.77;71.57;96667.69;6246586;23;20023;-80
2021/09/18 06:04:21;;;;;;;9.82;5.50;;;;;;;11.78;72.07;96670.09;6246507;23;20020;-80
2021/09/18 06:06:49;;;;;;;10.63;6.65;;;;;;;11.80;72.26;96670.72;6246933;23;20360;-81
2021/09/18 06:09:16;;;;;;;7.30;6.50;;;;;;;11.81;72.23;96669.75;6245646;23;20024;-80
2021/09/18 06:11:44;;;;;;;11.10;6.90;;;;;;;11.79;72.49;96666.50;6246142;23;20094;-80
2021/09/18 06:14:12;;;;;;;6.95;6.20;;;;;;;11.78;73.09;96667.47;6249782;23;20020;-82
2021/09/18 06:16:41;;;;;;;7.07;6.28;;;;;;;11.75;72.97;96671.28;6250620;23;20024;-81
2021/09/18 06:19:10;;;;;;;5.85;5.15;;;;;;;11.79;73.41;96670.94;6257803;23;20043;-80
2021/09/18 06:21:38;;;;;;;6.88;6.18;;;;;;;11.86;73.34;96677.81;6271613;22;20031;-78
2021/09/18 06:24:10;;;;;;;5.28;4.78;;;;;;;11.95;73.70;96676.72;6271294;22;20044;-78
2021/09/18 06:26:37;;;;;;;6.75;5.25;;;;;;;12.09;73.53;96684.66;6271896;23;20020;-79
2021/09/18 06:29:05;;;;;;;10.10;7.85;;;;;;;12.22;73.45;96684.75;6271625;22;20425;-77
2021/09/18 06:31:33;;;;;;;17.23;13.32;;;;;;;12.36;73.62;96691.72;6272096;22;20031;-78
2021/09/18 06:34:02;;;;;;;19.67;14.80;;;;;;;12.49;73.06;96692.81;6269514;23;20080;-82
2021/09/18 06:36:30;;;;;;;13.85;9.25;;;;;;;12.61;72.86;96693.09;6249082;23;20490;-81
2021/09/18 06:38:58;;;;;;;5.97;5.30;;;;;;;12.72;72.61;96695.97;6248186;23;20031;-81
2021/09/18 06:41:25;;;;;;;10.02;5.45;;;;;;;12.83;72.22;96692.00;6246585;23;20080;-81
2021/09/18 06:43:53;;;;;;;6.22;4.95;;;;;;;12.91;72.94;96691.84;6249191;23;20103;-82
2021/09/18 06:46:20;;;;;;;42.03;29.85;;;;;;;13.06;72.46;96690.91;6248488;23;20023;-81
2021/09/18 06:48:48;;;;;;;48.47;34.15;;;;;;;13.22;72.21;96693.19;6254334;23;20028;-80
2021/09/18 06:51:20;;;;;;;16.77;11.77;;;;;;;13.40;72.33;96695.28;6248981;23;20042;-81
2021/09/18 06:53:47;;;;;;;12.23;9.88;;;;;;;13.56;72.09;96700.19;6250242;23;20070;-81
2021/09/18 06:56:15;;;;;;;6.28;5.05;;;;;;;13.73;71.52;96695.38;6249049;23;20023;-81
2021/09/18 06:58:42;;;;;;;8.88;5.30;;;;;;;13.90;71.20;96698.41;6250732;23;20107;-82
2021/09/18 07:01:10;;;;;;;5.03;4.40;;;;;;;14.06;70.86;96693.78;6248798;23;20420;-82
2021/09/18 07:03:39;;;;;;;13.40;5.25;;;;;;;14.24;70.79;96696.63;6252760;23;20123;-82
2021/09/18 07:06:07;;;;;;;30.20;18.48;;;;;;;14.41;70.72;96692.59;6249365;23;20070;-80
2021/09/18 07:08:37;;;;;;;14.57;8.82;;;;;;;14.58;68.82;96697.44;6249773;23;20024;-81
2021/09/18 07:11:05;;;;;;;11.32;7.38;;;;;;;14.72;69.14;96692.97;6252241;23;20020;-82
2021/09/18 07:13:33;;;;;;;7.90;5.22;;;;;;;14.86;68.08;96699.00;6259006;23;20071;-82
2021/09/18 07:16:00;;;;;;;9.93;4.88;;;;;;;14.98;68.45;96697.34;6257618;23;20040;-81
2021/09/18 07:18:32;;;;;;;6.38;5.00;;;;;;;15.14;67.42;96696.09;6246813;23;20031;-82
2021/09/18 07:21:00;;;;;;;9.63;7.82;;;;;;;15.34;68.43;96691.53;6247510;23;20099;-80
2021/09/18 07:23:27;;;;;;;11.23;6.88;;;;;;;15.54;67.07;96694.06;6246975;23;20025;-78
2021/09/18 07:25:56;;;;;;;5.93;4.90;;;;;;;15.70;66.62;96687.53;6244994;23;20022;-80
2021/09/18 07:28:23;;;;;;;14.30;11.15;;;;;;;15.89;66.92;96688.41;6244426;23;20031;-76
2021/09/18 07:30:51;;;;;;;8.95;5.60;;;;;;;16.08;65.88;96686.69;6244873;23;20024;-78
2021/09/18 07:33:19;;;;;;;8.43;5.50;;;;;;;16.28;66.14;96691.78;6245190;23;20115;-79
2021/09/18 07:35:46;;;;;;;6.43;5.70;;;;;;;16.51;65.53;96687.72;6245165;23;20022;-80
2021/09/18 07:38:14;;;;;;;5.55;5.03;;;;;;;16.72;64.68;96689.94;6245001;23;20341;-77
2021/09/18 07:40:42;;;;;;;5.68;4.50;;;;;;;16.94;64.20;96690.34;6244866;23;20016;-78
2021/09/18 07:43:11;;;;;;;6.30;5.60;;;;;;;17.15;63.64;96691.75;6244557;23;20363;-78
2021/09/18 07:45:38;;;;;;;6.63;5.75;;;;;;;17.37;62.97;96691.28;6245017;23;20028;-79
2021/09/18 07:48:07;;;;;;;6.47;5.20;;;;;;;17.61;62.98;96695.63;6245045;23;20351;-79
2021/09/18 07:50:35;;;;;;;8.32;4.80;;;;;;;17.84;61.99;96704.66;6245408;23;20024;-80
2021/09/18 07:53:02;;;;;;;7.35;4.63;;;;;;;18.09;62.77;96702.66;6247538;23;20020;-81
2021/09/18 07:55:35;;;;;;;6.72;5.45;;;;;;;18.32;60.60;96698.44;6247126;23;20020;-81
2021/09/18 07:58:20;;;;;;;12.07;5.65;;;;;;;18.59;58.45;96703.31;6246186;23;20360;-78
2021/09/18 08:00:48;;;;;;;7.65;5.30;;;;;;;18.83;58.68;96702.28;6246971;23;20100;-74
2021/09/18 08:03:15;;;;;;;6.32;5.45;;;;;;;19.29;57.54;96700.56;6246463;23;20127;-74
2021/09/18 08:05:43;;;;;;;8.10;5.65;;;;;;;19.46;56.39;96705.09;6246312;23;20051;-75
2021/09/18 08:08:11;;;;;;;6.65;5.95;;;;;;;19.55;56.04;96703.72;6246746;23;20031;-75
2021/09/18 08:10:39;;;;;;;6.72;6.03;;;;;;;19.55;55.55;96709.81;6272461;22;20004;-81
2021/09/18 08:13:31;;;;;;;6.75;6.03;;;;;;;19.59;56.10;96710.16;6271803;22;20030;-80
2021/09/18 08:16:01;;;;;;;6.57;5.47;;;;;;;19.67;56.97;96712.41;6262464;23;20021;-80
2021/09/18 08:18:32;;;;;;;;;;;;;;;19.79;57.55;96706.28;6249391;23;20020;-80
2021/09/18 08:21:00;;;;;;;6.55;5.22;;;;;;;19.91;55.81;96713.13;6250987;23;20499;-80
2021/09/18 08:23:28;;;;;;;7.20;6.03;;;;;;;20.03;55.61;96704.31;6256900;23;20024;-80
2021/09/18 08:25:56;;;;;;;6.75;5.28;;;;;;;20.12;55.75;96708.19;6255124;23;20359;-80
2021/09/18 08:28:24;;;;;;;8.95;7.22;;;;;;;20.21;57.14;96706.75;6255382;23;20017;-81
2021/09/18 08:30:54;;;;;;;5.47;4.97;;;;;;;20.26;53.96;96708.66;6262166;23;20020;-81
2021/09/18 08:33:22;;;;;;;7.10;5.43;;;;;;;20.32;53.80;96710.34;6260819;23;20023;-80
2021/09/18 08:36:22;;;;;;;5.93;5.43;;;;;;;20.41;52.86;96716.84;6266349;23;20016;-80
2021/09/18 08:45:27;;;;;;;5.25;4.38;;;;;;;20.71;53.09;96705.94;6260201;22;20014;-80
2021/09/18 08:51:25;;;;;;;17.20;5.53;;;;;;;20.89;50.22;96706.72;6161695;23;20076;-79
2021/09/18 08:53:53;;;;;;;4.68;4.15;;;;;;;21.04;49.90;96703.47;6223374;23;20052;-77
2021/09/18 08:56:20;;;;;;;4.03;3.63;;;;;;;21.25;52.32;96710.59;6245912;23;20020;-79
2021/09/18 08:58:49;;;;;;;3.72;2.70;;;;;;;21.48;48.90;96708.78;6246014;23;20405;-76
2021/09/18 09:01:17;;;;;;;5.80;3.45;;;;;;;21.69;48.40;96705.31;6246553;23;20024;-75
2021/09/18 09:03:45;;;;;;;5.07;3.40;;;;;;;21.90;46.88;96700.97;6246555;23;20094;-76
2021/09/18 09:06:16;;;;;;;6.53;3.33;;;;;;;22.14;47.00;96701.44;6246423;23;20460;-79
2021/09/18 09:08:56;;;;;;;3.35;3.05;;;;;;;22.40;48.37;96704.34;6246484;23;20024;-78
2021/09/18 09:11:27;;;;;;;6.00;3.42;;;;;;;22.66;45.95;96696.56;6245887;23;20405;-74
2021/09/18 09:14:01;;;;;;;3.50;2.33;;;;;;;22.99;44.20;96696.19;6246296;23;20484;-74
2021/09/18 09:16:29;;;;;;;5.10;3.08;;;;;;;23.39;44.36;96694.78;6246601;23;20020;-76
2021/09/18 09:18:58;;;;;;;10.60;2.92;;;;;;;23.78;43.66;96699.72;6246331;23;20020;-74
2021/09/18 09:21:27;;;;;;;2.50;2.30;;;;;;;24.24;45.46;96694.41;6246174;23;20042;-75
2021/09/18 09:24:09;;;;;;;2.63;2.20;;;;;;;24.79;40.98;96696.53;6246733;23;20468;-78
2021/09/18 09:26:38;;;;;;;1.83;1.73;;;;;;;25.36;41.41;96687.28;6247405;23;20045;-79
2021/09/18 09:29:06;;;;;;;2.15;1.95;;;;;;;26.27;40.62;96695.81;6246984;23;20020;-79
2021/09/18 09:31:36;;;;;;;1.50;1.40;;;;;;;27.75;36.05;96687.25;6248805;23;20027;-79
2021/09/18 09:34:07;;;;;;;7.05;6.32;;;;;;;29.13;35.03;96693.03;6247757;23;20020;-80
2021/09/18 09:36:40;;;;;;;52.42;41.13;;;;;;;30.26;31.58;96690.53;6246291;23;20368;-80
2021/09/18 09:39:12;;;;;;;42.63;33.42;;;;;;;31.17;30.96;96685.81;6246166;23;20031;-79
2021/09/18 09:41:42;;;;;;;6.57;3.78;;;;;;;31.97;27.49;96681.03;6246158;23;20024;-79
2021/09/18 09:44:11;;;;;;;1.63;1.30;;;;;;;32.66;25.40;96682.03;6247111;23;20031;-79
2021/09/18 09:46:40;;;;;;;1.05;1.05;;;;;;;33.20;27.12;96678.81;6249563;23;20352;-77
2021/09/18 09:49:13;;;;;;;1.05;0.90;;;;;;;33.38;26.87;96690.31;6248449;23;20493;-79
2021/09/18 09:51:42;;;;;;;1.27;1.17;;;;;;;33.80;24.01;96679.53;6248423;23;20024;-80
2021/09/18 09:54:20;;;;;;;1.10;1.10;;;;;;;34.23;22.60;96681.91;6248766;23;20020;-76
2021/09/18 09:56:49;;;;;;;0.90;0.80;;;;;;;34.57;24.83;96688.09;6245053;23;20023;-78
2021/09/18 09:59:29;;;;;;;0.85;0.85;;;;;;;34.90;22.11;96678.31;6244916;23;20031;-77
2021/09/18 10:01:57;;;;;;;1.10;1.00;;;;;;;35.28;22.85;96681.50;6245378;23;20020;-77
2021/09/18 10:04:24;;;;;;;1.95;1.25;;;;;;;35.35;20.25;96678.22;6250138;23;20363;-77
2021/09/18 10:06:52;;;;;;;1.27;1.17;;;;;;;35.24;20.13;96680.59;6256541;23;20355;-80
2021/09/18 10:09:24;;;;;;;1.27;0.90;;;;;;;35.10;22.53;96674.72;6258314;23;20103;-79
2021/09/18 10:11:54;;;;;;;1.33;1.23;;;;;;;34.87;22.55;96685.22;6250037;23;20024;-79
2021/09/18 10:14:24;;;;;;;1.45;1.30;;;;;;;34.62;21.60;96673.53;6255629;23;20028;-80
2021/09/18 10:16:55;;;;;;;3.25;1.70;;;;;;;34.32;21.48;96678.31;6253127;23;20460;-76
2021/09/18 10:19:41;;;;;;;1.50;1.40;;;;;;;33.75;23.35;96672.41;6244727;23;20031;-77
2021/09/18 10:24:58;;;;;;;3.58;1.75;;;;;;;33.19;25.68;96669.09;6245250;23;20103;-76
2021/09/18 10:27:27;;;;;;;2.95;1.33;;;;;;;33.04;25.76;96663.13;6245239;23;20023;-78
2021/09/18 10:29:55;;;;;;;1.67;1.52;;;;;;;33.00;23.65;96659.50;6245517;23;20031;-77
2021/09/18 10:32:24;;;;;;;1.92;1.50;;;;;;;32.95;25.86;96667.78;6245733;23;20022;-77
2021/09/18 10:35:11;;;;;;;1.25;1.13;;;;;;;32.93;26.78;96663.81;6246683;23;20024;-78
2021/09/18 10:37:40;;;;;;;1.92;1.83;;;;;;;33.00;23.53;96658.72;6246135;23;20020;-78
2021/09/18 10:40:11;;;;;;;2.80;1.73;;;;;;;32.96;23.63;96663.19;6244807;23;20056;-78
2021/09/18 10:42:41;;;;;;;2.70;2.00;;;;;;;32.97;23.66;96667.44;6245977;23;20023;-79
2021/09/18 10:45:11;;;;;;;4.53;2.58;;;;;;;33.12;23.29;96661.53;6245176;23;20023;-80
2021/09/18 10:47:41;;;;;;;2.95;2.25;;;;;;;33.45;23.43;96653.53;6245624;23;20023;-78
2021/09/18 10:50:40;;;;;;;3.65;1.92;;;;;;;33.96;23.20;96650.78;6245040;23;20027;-77
2021/09/18 10:53:11;;;;;;;2.83;2.20;;;;;;;34.57;21.79;96663.72;6236324;23;20024;-76
2021/09/18 10:55:55;;;;;;;3.25;2.42;;;;;;;34.95;22.23;96656.44;6245453;23;20027;-77
2021/09/18 10:58:23;;;;;;;2.30;2.10;;;;;;;35.30;21.05;96655.97;6245230;23;20024;-77
2021/09/18 11:00:59;;;;;;;2.15;2.03;;;;;;;35.55;21.40;96654.78;6245013;23;20024;-78
2021/09/18 11:03:42;;;;;;;4.13;2.67;;;;;;;35.83;20.92;96657.56;6246661;23;20027;-78
2021/09/18 11:06:10;;;;;;;2.50;2.30;;;;;;;36.07;20.89;96656.66;6246258;23;20402;-76
2021/09/18 11:08:39;;;;;;;2.30;2.20;;;;;;;36.24;22.24;96652.09;6242563;23;20023;-76
2021/09/18 11:11:13;;;;;;;3.65;3.35;;;;;;;36.33;19.43;96660.88;6242623;23;20019;-77
2021/09/18 11:13:42;;;;;;;2.80;2.60;;;;;;;36.38;20.46;96655.16;6242323;23;20016;-77
2021/09/18 11:16:25;;;;;;;4.50;2.80;;;;;;;36.30;20.40;96659.63;6242846;23;20028;-77
2021/09/18 11:18:59;;;;;;;3.75;2.92;;;;;;;36.31;19.74;96655.00;6243001;23;20069;-78
2021/09/18 11:21:28;;;;;;;3.17;2.95;;;;;;;36.27;21.45;96651.38;6243339;23;20026;-77
2021/09/18 11:23:58;;;;;;;3.25;3.03;;;;;;;36.10;20.28;96647.03;6245322;23;20052;-77
2021/09/18 11:26:42;;;;;;;3.40;3.10;;;;;;;35.67;20.36;96643.94;6245521;23;20031;-78
2021/09/18 11:29:21;;;;;;;4.10;3.38;;;;;;;35.05;21.74;96647.81;6245085;23;20023;-78
2021/09/18 11:32:05;;;;;;;4.72;4.03;;;;;;;34.26;22.30;96639.81;6245691;23;20020;-77
2021/09/18 11:34:35;;;;;;;3.80;3.50;;;;;;;33.84;24.85;96637.19;6247934;23;20407;-77
2021/09/18 11:37:05;;;;;;;4.78;3.53;;;;;;;33.48;23.90;96635.03;6247952;23;20020;-79
2021/09/18 11:39:48;;;;;;;4.30;3.90;;;;;;;33.12;22.87;96639.13;6248309;23;20020;-79
2021/09/18 11:42:26;;;;;;;5.43;4.47;;;;;;;32.82;24.46;96637.19;6250983;23;20020;-78
2021/09/18 11:44:59;;;;;;;3.42;3.13;;;;;;;32.56;24.01;96628.38;6247653;22;20478;-75
2021/09/18 11:47:30;;;;;;;4.60;4.20;;;;;;;32.35;23.82;96633.66;6247545;23;20027;-75
2021/09/18 11:50:00;;;;;;;4.03;3.22;;;;;;;32.28;24.42;96622.59;6247686;23;20024;-74
2021/09/18 11:52:36;;;;;;;3.08;2.88;;;;;;;32.38;25.70;96627.63;6246587;23;20035;-74
2021/09/18 11:55:06;;;;;;;3.83;3.28;;;;;;;32.54;24.14;96625.22;6246224;23;20024;-75